Terminal Aerodrome Forecast
Issued by NWS Pittsburgh, PA

Current Version | Previous Version | Graphics & Text | Print | Product List | Glossary On
Versions: 1 2 3 4 5 6 7 8 9 10 11 12 13 14 15 16 17 18 19 20 21 22 23 24 25 26 27 28 29 30
000
FTUS41 KPBZ 022300
TAFPIT
TAF
KPIT 022322Z 0300/0406 VRB03KT P6SM BKN150
     FM031800 13005KT 5SM -FZRASN OVC020
     FM032100 18008KT 2SM -RA BR OVC008
     FM040000 20005KT 2SM -RA BR OVC005 WS020/23045KT=

USA.gov is the U.S. government's official web portal to all federal, state and local government web resources and services.